KELZ/ELZ METAR and TAF weather

Enter ICAO airport designator
Station Type Date Time Source
KELZ METAR 2019/12/09 05:56 UTC NOAA

KELZ 090556Z AUTO 17008G15KT 10SM BKN042 OVC060 02/M06 A3005 RMK AO2 SLP197 T00171061 10017 20011 58008 $


Station Type Date Time Source
KELZ Decoded METAR 2019/12/09 05:56 UTC NOAA

WELLSVILLE MUNICIPAL AIRPORT, NY, United States (KELZ) 42-06N 077-60W 646M
Dec 09, 2019 - 12:56 AM EST / 2019.12.09 0556 UTC
Wind: from the S (170 degrees) at 9 MPH (8 KT) gusting to 17 MPH (15 KT):0
Visibility: 10 mile(s):0
Sky conditions: overcast
Temperature: 35.1 F (1.7 C)
Dew Point: 21.0 F (-6.1 C)
Relative Humidity: 56%
Pressure (altimeter): 30.05 in. Hg (1017 hPa)
Pressure tendency: 0.02 inches (0.8 hPa) lower than three hours ago
ob: KELZ 090556Z AUTO 17008G15KT 10SM BKN042 OVC060 02/M06 A3005 RMK AO2 SLP197 T00171061 10017 20011 58008
cycle: 6

Station Type Date Time Source
KELZ TAF UTC NOAA

Error!

Example: see airport list